createdAt,value
2022-10-05T00:00:00.897Z,10.1
2022-10-05T00:01:00.928Z,10.2
2022-10-05T00:02:00.975Z,9.9
2022-10-05T00:03:00.994Z,10.1
2022-10-05T00:07:00.914Z,9.8
2022-10-05T00:08:00.913Z,10
2022-10-05T00:09:00.945Z,10.1
2022-10-05T00:11:00.913Z,10.1
2022-10-05T00:13:00.964Z,10
2022-10-05T00:15:00.925Z,10.1
2022-10-05T00:16:01.114Z,9.9
2022-10-05T00:17:00.979Z,10
2022-10-05T00:19:00.958Z,9.8
2022-10-05T00:22:00.909Z,9.8
2022-10-05T00:23:00.910Z,10
2022-10-05T00:24:01.030Z,9.8
2022-10-05T00:28:01.003Z,9.8
2022-10-05T00:32:01.067Z,10
2022-10-05T00:34:00.951Z,9.8
2022-10-05T00:38:00.884Z,9.9
2022-10-05T00:40:00.888Z,9.8
2022-10-05T00:41:00.912Z,10
2022-10-05T00:42:00.931Z,9.9
2022-10-05T00:47:00.892Z,10
2022-10-05T00:49:00.946Z,9.9
2022-10-05T00:51:00.918Z,10
2022-10-05T00:52:00.899Z,9.9
2022-10-05T00:54:00.929Z,9.8
2022-10-05T00:57:00.919Z,9.8
2022-10-05T00:58:00.896Z,9.9
2022-10-05T00:59:00.893Z,9.7
2022-10-05T01:00:00.955Z,9.8
2022-10-05T01:05:00.905Z,9.6
2022-10-05T01:06:00.916Z,9.8
2022-10-05T01:08:00.933Z,9.7
2022-10-05T01:10:00.928Z,9.7
2022-10-05T01:12:00.927Z,9.7
2022-10-05T01:13:00.908Z,9.9
2022-10-05T01:15:00.955Z,9.8
2022-10-05T01:17:01.069Z,9.7
2022-10-05T01:23:00.913Z,9.9
2022-10-05T01:24:00.939Z,9.8
2022-10-05T01:26:00.929Z,9.9
2022-10-05T01:35:00.911Z,9.8
2022-10-05T01:36:00.907Z,9.9
2022-10-05T01:37:00.940Z,9.7
2022-10-05T01:41:00.931Z,9.7
2022-10-05T01:43:00.911Z,9.7
2022-10-05T01:46:01.012Z,9.6
2022-10-05T01:48:00.937Z,9.7
2022-10-05T01:50:00.892Z,9.5
2022-10-05T01:52:00.914Z,9.6
2022-10-05T01:53:00.903Z,9.5
2022-10-05T01:54:00.950Z,9.6
2022-10-05T01:57:00.903Z,9.5
2022-10-05T01:58:00.897Z,9.6
2022-10-05T01:59:00.898Z,9.7
2022-10-05T02:00:00.897Z,9.6
2022-10-05T02:03:00.905Z,9.7
2022-10-05T02:04:00.930Z,9.6
2022-10-05T02:13:01.014Z,9.7
2022-10-05T02:15:00.917Z,9.7
2022-10-05T02:17:00.893Z,9.7
2022-10-05T02:18:00.894Z,9.6
2022-10-05T02:21:00.898Z,9.7
2022-10-05T02:22:00.956Z,9.5
2022-10-05T02:28:00.970Z,9.7
2022-10-05T02:30:00.997Z,9.6
2022-10-05T02:32:00.943Z,9.7
2022-10-05T02:33:01.140Z,9.8
2022-10-05T02:37:00.911Z,9.7
2022-10-05T02:38:00.931Z,9.8
2022-10-05T02:39:00.914Z,9.9
2022-10-05T02:40:00.914Z,9.7
2022-10-05T02:41:00.931Z,9.8
2022-10-05T02:43:00.897Z,9.9
2022-10-05T02:45:00.901Z,9.8
2022-10-05T02:46:00.965Z,9.9
2022-10-05T02:49:00.952Z,10.1
2022-10-05T02:50:00.944Z,10
2022-10-05T02:51:00.940Z,10.1
2022-10-05T02:52:00.951Z,9.9
2022-10-05T02:56:00.902Z,9.9
2022-10-05T02:59:00.944Z,10
2022-10-05T03:01:00.964Z,9.9
2022-10-05T03:03:00.899Z,10
2022-10-05T03:05:00.919Z,9.9
2022-10-05T03:06:00.898Z,10
2022-10-05T03:07:00.932Z,9.9
2022-10-05T03:08:00.905Z,10
2022-10-05T03:14:00.963Z,10
2022-10-05T03:15:00.918Z,9.9
2022-10-05T03:17:00.931Z,9.9
2022-10-05T03:19:00.901Z,9.8
2022-10-05T03:23:00.930Z,9.9
2022-10-05T03:24:00.932Z,9.8
2022-10-05T03:26:00.905Z,10
2022-10-05T03:27:00.911Z,9.9
2022-10-05T03:28:01.165Z,9.8
2022-10-05T03:30:00.994Z,10
2022-10-05T03:37:00.900Z,10.1
2022-10-05T03:42:00.927Z,10
2022-10-05T03:46:00.995Z,10.1
2022-10-05T03:48:01.558Z,10.1
2022-10-05T03:49:00.911Z,10
2022-10-05T03:51:00.968Z,10.1
2022-10-05T03:54:00.913Z,10
2022-10-05T03:56:02.930Z,9.9
2022-10-05T03:59:00.896Z,9.9
2022-10-05T04:01:00.969Z,9.8
2022-10-05T04:03:00.962Z,9.8
2022-10-05T04:05:00.917Z,9.7
2022-10-05T04:07:00.926Z,9.6
2022-10-05T04:08:00.915Z,9.7
2022-10-05T04:09:00.915Z,9.6
2022-10-05T04:11:00.950Z,9.7
2022-10-05T04:17:00.909Z,9.5
2022-10-05T04:19:00.915Z,9.3
2022-10-05T04:20:00.948Z,9.5
2022-10-05T04:25:00.938Z,9.3
2022-10-05T04:27:00.968Z,9.4
2022-10-05T04:29:00.929Z,9.4
2022-10-05T04:30:01.002Z,9.3
2022-10-05T04:32:00.908Z,9.2
2022-10-05T04:35:00.938Z,9.3
2022-10-05T04:36:00.945Z,9.2
2022-10-05T04:38:00.921Z,9.3
2022-10-05T04:39:00.957Z,9.2
2022-10-05T04:42:00.906Z,9.3
2022-10-05T04:43:00.942Z,9.2
2022-10-05T04:46:00.945Z,9.2
2022-10-05T04:48:00.892Z,9.2
2022-10-05T04:49:01.011Z,9.1
2022-10-05T04:51:00.911Z,9.3
2022-10-05T04:52:00.903Z,9.2
2022-10-05T04:57:00.919Z,9.1
2022-10-05T04:58:00.952Z,9.2
2022-10-05T04:59:00.941Z,9
2022-10-05T05:02:00.983Z,9.1
2022-10-05T05:03:01.018Z,9.3
2022-10-05T05:05:00.894Z,9
2022-10-05T05:06:16.231Z,9.1
2022-10-05T05:07:00.899Z,9.3
2022-10-05T05:09:00.907Z,9.2
2022-10-05T05:10:00.900Z,9.3
2022-10-05T05:12:00.926Z,9.4
2022-10-05T05:13:00.909Z,9.5
2022-10-05T05:14:00.921Z,9.4
2022-10-05T05:15:00.910Z,9.3
2022-10-05T05:18:00.909Z,9.6
2022-10-05T05:19:00.987Z,9.4
2022-10-05T05:22:00.915Z,9.5
2022-10-05T05:23:01.000Z,9.4
2022-10-05T05:25:00.917Z,9.4
2022-10-05T05:29:00.946Z,9.4
2022-10-05T05:30:01.076Z,9.6
2022-10-05T05:35:00.976Z,9.8
2022-10-05T05:38:00.921Z,9.6
2022-10-05T05:39:00.929Z,9.8
2022-10-05T05:42:00.908Z,9.9
2022-10-05T05:43:00.906Z,9.8
2022-10-05T05:44:00.897Z,9.9
2022-10-05T05:46:00.960Z,10.1
2022-10-05T05:48:00.899Z,10.1
2022-10-05T05:49:00.934Z,10.2
2022-10-05T05:50:06.530Z,10.1
2022-10-05T05:53:00.891Z,10.3
2022-10-05T05:57:01.003Z,10.5
2022-10-05T05:59:00.896Z,10.5
2022-10-05T06:02:01.083Z,10.6
2022-10-05T06:06:00.898Z,10.9
2022-10-05T06:07:00.971Z,10.8
2022-10-05T06:09:00.891Z,10.9
2022-10-05T06:11:00.942Z,11
2022-10-05T06:15:00.947Z,11.2
2022-10-05T06:16:01.013Z,11.4
2022-10-05T06:19:00.951Z,11.6
2022-10-05T06:21:00.952Z,11.9
2022-10-05T06:23:00.909Z,12.2
2022-10-05T06:24:00.923Z,12.3
2022-10-05T06:25:00.921Z,12.4
2022-10-05T06:26:00.923Z,12.5
2022-10-05T06:27:00.907Z,12.7
2022-10-05T06:28:00.952Z,12.8
2022-10-05T06:29:00.950Z,12.9
2022-10-05T06:30:00.972Z,13.2
2022-10-05T06:32:01.025Z,13.5
2022-10-05T06:33:00.956Z,13.6
2022-10-05T06:34:00.938Z,13.7
2022-10-05T06:37:00.926Z,13.5
2022-10-05T06:40:01.318Z,13.4
2022-10-05T06:41:01.019Z,13.3
2022-10-05T06:45:00.923Z,13
2022-10-05T06:47:01.035Z,12.9
2022-10-05T06:50:00.908Z,12.8
2022-10-05T06:52:00.945Z,12.9
2022-10-05T06:54:00.917Z,12.9
2022-10-05T06:57:00.907Z,13
2022-10-05T06:58:00.929Z,12.9
2022-10-05T07:00:00.911Z,13
2022-10-05T07:02:00.936Z,13.1
2022-10-05T07:03:00.914Z,13.2
2022-10-05T07:04:00.997Z,13.5
2022-10-05T07:05:00.967Z,13.8
2022-10-05T07:07:00.884Z,14.4
2022-10-05T07:08:00.919Z,15
2022-10-05T07:09:00.974Z,15.2
2022-10-05T07:11:00.889Z,15.8
2022-10-05T07:12:03.839Z,16.1
2022-10-05T07:13:00.922Z,16.3
2022-10-05T07:15:00.891Z,16.6
2022-10-05T07:16:00.998Z,16.7
2022-10-05T07:18:00.918Z,16.8
2022-10-05T07:19:00.955Z,16.9
2022-10-05T07:22:00.927Z,16.7
2022-10-05T07:23:00.907Z,16.6
2022-10-05T07:24:00.886Z,16.7
2022-10-05T07:26:00.933Z,16.5
2022-10-05T07:30:00.949Z,16.2
2022-10-05T07:31:01.032Z,16.3
2022-10-05T07:34:00.890Z,15.9
2022-10-05T07:36:00.934Z,16
2022-10-05T07:38:00.894Z,15.8
2022-10-05T07:39:00.913Z,15.7
2022-10-05T07:41:00.931Z,15.6
2022-10-05T07:43:00.903Z,15.3
2022-10-05T07:44:02.735Z,15.4
2022-10-05T07:45:00.975Z,15.3
2022-10-05T07:49:00.908Z,15.2
2022-10-05T07:50:00.966Z,15.3
2022-10-05T07:52:00.907Z,15.2
2022-10-05T07:53:00.928Z,15.4
2022-10-05T07:54:00.906Z,15.3
2022-10-05T07:57:00.938Z,15.4
2022-10-05T07:59:00.908Z,15.5
2022-10-05T08:02:00.967Z,15.6
2022-10-05T08:05:00.906Z,15.7
2022-10-05T08:06:00.903Z,15.8
2022-10-05T08:07:00.898Z,15.9
2022-10-05T08:08:00.887Z,15.8
2022-10-05T08:09:00.912Z,15.9
2022-10-05T08:11:00.935Z,16
2022-10-05T08:13:00.908Z,16.1
2022-10-05T08:15:00.904Z,16.2
2022-10-05T08:17:00.900Z,16.4
2022-10-05T08:20:00.943Z,16.6
2022-10-05T08:22:00.945Z,16.7
2022-10-05T08:24:00.924Z,16.8
2022-10-05T08:26:00.946Z,16.9
2022-10-05T08:29:00.916Z,17.1
2022-10-05T08:30:01.290Z,17.3
2022-10-05T08:32:00.894Z,17.3
2022-10-05T08:37:00.956Z,17.4
2022-10-05T08:40:00.983Z,17.5
2022-10-05T08:44:00.948Z,17.7
2022-10-05T08:46:00.950Z,18
2022-10-05T08:49:00.917Z,18.3
2022-10-05T08:50:00.975Z,18.4
2022-10-05T08:52:00.916Z,18.5
2022-10-05T08:53:00.937Z,18.6
2022-10-05T08:54:00.939Z,18.5
2022-10-05T08:56:00.978Z,18.9
2022-10-05T09:06:00.994Z,18.7
2022-10-05T09:09:00.945Z,18.7
2022-10-05T09:10:01.814Z,18.6
2022-10-05T09:17:00.891Z,18.6
2022-10-05T09:18:00.894Z,18.7
2022-10-05T09:20:00.931Z,18.5
2022-10-05T09:25:00.918Z,18.5
2022-10-05T09:27:00.914Z,18.4
2022-10-05T09:29:00.920Z,18.4
2022-10-05T09:30:01.090Z,18.3
2022-10-05T09:32:00.915Z,18.2
2022-10-05T09:34:00.888Z,18.4
2022-10-05T09:36:00.922Z,18.3
2022-10-05T09:37:00.942Z,18.5
2022-10-05T09:38:00.957Z,18.4
2022-10-05T09:40:01.589Z,18.6
2022-10-05T09:43:00.963Z,18.7
2022-10-05T09:46:00.997Z,18.8
2022-10-05T09:49:00.900Z,18.9
2022-10-05T09:52:01.033Z,18.8
2022-10-05T09:54:00.957Z,18.7
2022-10-05T09:55:00.944Z,18.8
2022-10-05T09:57:00.920Z,18.9
2022-10-05T09:59:00.978Z,19
2022-10-05T10:01:03.940Z,19.2
2022-10-05T10:02:00.932Z,19.3
2022-10-05T10:03:01.025Z,19.4
2022-10-05T10:06:00.920Z,19.8
2022-10-05T10:09:00.915Z,20.2
2022-10-05T10:11:00.905Z,20.3
2022-10-05T10:12:00.903Z,20.2
2022-10-05T10:14:00.932Z,20.1
2022-10-05T10:17:00.911Z,20
2022-10-05T10:22:00.907Z,20.1
2022-10-05T10:23:00.912Z,20
2022-10-05T10:25:00.975Z,19.9
2022-10-05T10:28:00.964Z,19.9
2022-10-05T10:33:00.920Z,20
2022-10-05T10:35:00.908Z,20
2022-10-05T10:36:01.727Z,19.9
2022-10-05T10:37:00.907Z,20
2022-10-05T10:38:00.904Z,20.1
2022-10-05T10:41:00.903Z,20
2022-10-05T10:42:00.974Z,20.2
2022-10-05T10:43:01.005Z,20
2022-10-05T10:48:00.951Z,20.1
2022-10-05T10:49:00.934Z,19.9
2022-10-05T10:50:00.985Z,20
2022-10-05T10:52:00.971Z,19.7
2022-10-05T10:54:00.969Z,19.7
2022-10-05T10:55:00.938Z,19.8
2022-10-05T10:58:00.902Z,19.6
2022-10-05T11:00:00.915Z,19.5
2022-10-05T11:03:01.041Z,19.4
2022-10-05T11:05:00.957Z,19.6
2022-10-05T11:07:00.895Z,19.6
2022-10-05T11:09:00.904Z,19.7
2022-10-05T11:13:00.952Z,19.8
2022-10-05T11:14:00.992Z,19.7
2022-10-05T11:17:00.926Z,19.7
2022-10-05T11:19:00.948Z,19.7
2022-10-05T11:21:00.922Z,19.7
2022-10-05T11:23:00.909Z,19.5
2022-10-05T11:24:00.903Z,19.7
2022-10-05T11:27:00.925Z,19.8
2022-10-05T11:28:01.084Z,19.7
2022-10-05T11:30:00.962Z,19.6
2022-10-05T11:31:01.015Z,19.7
2022-10-05T11:34:01.055Z,19.4
2022-10-05T11:36:00.949Z,19.4
2022-10-05T11:38:00.968Z,19.6
2022-10-05T11:40:00.944Z,19.7
2022-10-05T11:44:03.277Z,19.8
2022-10-05T11:45:00.948Z,19.7
2022-10-05T11:47:01.056Z,19.8
2022-10-05T11:50:00.984Z,20
2022-10-05T11:51:01.052Z,19.8
2022-10-05T11:52:01.072Z,19.9
2022-10-05T11:54:00.885Z,19.7
2022-10-05T11:55:11.925Z,19.8
2022-10-05T11:57:01.272Z,19.9
2022-10-05T11:58:00.953Z,19.8
2022-10-05T12:00:00.951Z,19.6
2022-10-05T12:02:00.920Z,19.6
2022-10-05T12:03:01.022Z,19.5
2022-10-05T12:05:00.911Z,19.4
2022-10-05T12:07:00.942Z,19.3
2022-10-05T12:08:00.898Z,19.4
2022-10-05T12:10:00.890Z,19.2
2022-10-05T12:11:00.938Z,19.3
2022-10-05T12:13:01.332Z,19.3
2022-10-05T12:14:00.931Z,19.4
2022-10-05T12:16:00.974Z,19.5
2022-10-05T12:18:00.913Z,19.3
2022-10-05T12:21:00.937Z,19.4
2022-10-05T12:24:00.905Z,19.2
2022-10-05T12:25:00.927Z,19.4
2022-10-05T12:26:00.949Z,19.3
2022-10-05T12:28:00.981Z,19.6
2022-10-05T12:32:00.905Z,19.7
2022-10-05T12:33:02.130Z,19.8
2022-10-05T12:36:00.941Z,19.9
2022-10-05T12:37:04.892Z,20
2022-10-05T12:39:00.910Z,20.1
2022-10-05T12:40:00.896Z,20
2022-10-05T12:43:00.924Z,20.1
2022-10-05T12:44:00.966Z,20
2022-10-05T12:46:00.930Z,20
2022-10-05T12:47:00.920Z,19.9
2022-10-05T12:50:01.037Z,19.8
2022-10-05T12:51:00.945Z,19.9
2022-10-05T12:53:00.938Z,19.6
2022-10-05T12:55:00.912Z,19.7
2022-10-05T12:57:00.895Z,19.8
2022-10-05T12:58:00.918Z,19.7
2022-10-05T12:59:00.906Z,19.8
2022-10-05T13:03:00.949Z,19.9
2022-10-05T13:05:00.890Z,19.9
2022-10-05T13:06:02.703Z,20
2022-10-05T13:07:00.903Z,19.9
2022-10-05T13:08:00.896Z,19.8
2022-10-05T13:09:00.925Z,19.9
2022-10-05T13:12:00.907Z,20
2022-10-05T13:14:00.923Z,20.1
2022-10-05T13:15:00.906Z,20.3
2022-10-05T13:17:00.957Z,20.2
2022-10-05T13:18:00.941Z,20.4
2022-10-05T13:20:00.952Z,20.4
2022-10-05T13:22:00.957Z,20.5
2022-10-05T13:25:00.915Z,20.7
2022-10-05T13:28:00.946Z,20.9
2022-10-05T13:30:01.025Z,20.8
2022-10-05T13:32:00.930Z,20.9
2022-10-05T13:34:00.933Z,21
2022-10-05T13:37:00.911Z,21
2022-10-05T13:39:00.917Z,21.1
2022-10-05T13:41:00.915Z,21
2022-10-05T13:43:00.901Z,21.2
2022-10-05T13:44:00.924Z,21
2022-10-05T13:45:00.924Z,21.2
2022-10-05T13:47:00.904Z,21.1
2022-10-05T13:48:00.906Z,21
2022-10-05T13:49:00.924Z,21.1
2022-10-05T13:51:00.929Z,20.9
2022-10-05T13:52:00.955Z,21
2022-10-05T13:55:00.944Z,20.8
2022-10-05T13:56:00.913Z,20.9
2022-10-05T13:57:00.934Z,20.8
2022-10-05T13:58:00.915Z,20.9
2022-10-05T13:59:00.912Z,20.8
2022-10-05T14:02:00.947Z,20.7
2022-10-05T14:04:00.886Z,20.9
2022-10-05T14:05:00.905Z,20.8
2022-10-05T14:07:00.959Z,20.7
2022-10-05T14:09:00.913Z,20.7
2022-10-05T14:12:00.936Z,20.6
2022-10-05T14:13:00.911Z,20.7
2022-10-05T14:18:00.955Z,20.5
2022-10-05T14:19:00.981Z,20.6
2022-10-05T14:23:00.921Z,20.5
2022-10-05T14:25:00.907Z,20.4
2022-10-05T14:27:00.894Z,20.5
2022-10-05T14:28:00.973Z,20.4
2022-10-05T14:29:00.942Z,20.3
2022-10-05T14:30:01.009Z,20.4
2022-10-05T14:34:00.912Z,20.2
2022-10-05T14:36:00.912Z,20.1
2022-10-05T14:37:01.010Z,20.2
2022-10-05T14:40:00.939Z,20
2022-10-05T14:41:00.969Z,20.1
2022-10-05T14:43:00.897Z,19.9
2022-10-05T14:47:00.905Z,19.9
2022-10-05T14:48:00.937Z,19.8
2022-10-05T14:50:00.967Z,19.7
2022-10-05T14:52:00.895Z,19.5
2022-10-05T14:55:00.966Z,19.4
2022-10-05T14:59:00.935Z,19.2
2022-10-05T15:01:00.980Z,19.1
2022-10-05T15:02:01.009Z,19.2
2022-10-05T15:04:00.899Z,19.1
2022-10-05T15:05:00.930Z,19
2022-10-05T15:06:00.920Z,19.1
2022-10-05T15:07:04.019Z,18.9
2022-10-05T15:08:00.972Z,18.7
2022-10-05T15:10:00.952Z,18.7
2022-10-05T15:12:00.916Z,18.5
2022-10-05T15:13:00.907Z,18.6
2022-10-05T15:17:00.951Z,18.4
2022-10-05T15:18:00.935Z,18.6
2022-10-05T15:19:00.934Z,18.5
2022-10-05T15:22:00.918Z,18.5
2022-10-05T15:24:00.899Z,18.4
2022-10-05T15:26:00.897Z,18.4
2022-10-05T15:28:00.980Z,18.3
2022-10-05T15:32:00.946Z,18.2
2022-10-05T15:35:00.932Z,18.2
2022-10-05T15:37:00.885Z,18.3
2022-10-05T15:38:00.903Z,18.2
2022-10-05T15:39:00.939Z,18
2022-10-05T15:40:00.900Z,18.1
2022-10-05T15:43:00.938Z,17.9
2022-10-05T15:46:00.921Z,17.9
2022-10-05T15:49:00.899Z,17.7
2022-10-05T15:50:00.893Z,17.8
2022-10-05T15:51:00.936Z,17.7
2022-10-05T15:56:00.906Z,17.5
2022-10-05T15:57:00.904Z,17.6
2022-10-05T15:59:00.921Z,17.4
2022-10-05T16:01:00.991Z,17.3
2022-10-05T16:03:00.885Z,17.5
2022-10-05T16:04:00.902Z,17.3
2022-10-05T16:05:04.569Z,17.4
2022-10-05T16:07:00.940Z,17.1
2022-10-05T16:08:00.956Z,17.3
2022-10-05T16:11:00.897Z,17.1
2022-10-05T16:13:00.899Z,17.1
2022-10-05T16:14:00.933Z,17
2022-10-05T16:16:00.887Z,16.9
2022-10-05T16:20:00.902Z,16.7
2022-10-05T16:22:00.938Z,16.8
2022-10-05T16:26:00.935Z,16.7
2022-10-05T16:27:00.946Z,16.6
2022-10-05T16:29:00.943Z,16.5
2022-10-05T16:30:00.986Z,16.6
2022-10-05T16:32:01.003Z,16.4
2022-10-05T16:34:00.937Z,16.3
2022-10-05T16:38:00.909Z,16.2
2022-10-05T16:39:00.958Z,16.1
2022-10-05T16:41:02.043Z,16
2022-10-05T16:42:00.985Z,16.1
2022-10-05T16:44:00.943Z,16
2022-10-05T16:46:00.949Z,16.1
2022-10-05T16:54:00.906Z,15.8
2022-10-05T16:56:00.965Z,15.6
2022-10-05T16:58:00.912Z,15.8
2022-10-05T16:59:00.933Z,15.7
2022-10-05T17:01:00.960Z,15.6
2022-10-05T17:03:00.954Z,15.7
2022-10-05T17:04:00.937Z,15.6
2022-10-05T17:06:00.923Z,15.6
2022-10-05T17:08:00.928Z,15.7
2022-10-05T17:09:00.949Z,15.5
2022-10-05T17:12:00.945Z,15.6
2022-10-05T17:14:00.952Z,15.5
2022-10-05T17:15:00.999Z,15.6
2022-10-05T17:18:00.918Z,15.5
2022-10-05T17:20:00.912Z,15.3
2022-10-05T17:21:00.939Z,15.4
2022-10-05T17:22:01.003Z,15.5
2022-10-05T17:23:01.051Z,15.3
2022-10-05T17:26:00.910Z,15.4
2022-10-05T17:30:00.932Z,15.2
2022-10-05T17:32:00.991Z,15.2
2022-10-05T17:33:01.045Z,15.3
2022-10-05T17:35:00.921Z,15.2
2022-10-05T17:37:01.017Z,15.4
2022-10-05T17:42:00.919Z,15.1
2022-10-05T17:43:00.991Z,15.2
2022-10-05T17:46:01.009Z,15.3
2022-10-05T17:47:00.980Z,15.2
2022-10-05T17:49:00.981Z,15.3
2022-10-05T17:52:00.953Z,15.1
2022-10-05T17:53:02.353Z,15.2
2022-10-05T17:55:00.993Z,15.2
2022-10-05T17:57:00.937Z,15.1
2022-10-05T17:58:01.001Z,15.2
2022-10-05T18:00:01.804Z,15.2
2022-10-05T18:03:01.011Z,15.2
2022-10-05T18:04:01.013Z,15
2022-10-05T18:07:00.959Z,15
2022-10-05T18:09:01.002Z,15.1
2022-10-05T18:11:00.955Z,15.1
2022-10-05T18:12:00.971Z,15
2022-10-05T18:14:00.950Z,15.1
2022-10-05T18:15:00.978Z,15
2022-10-05T18:17:00.985Z,14.9
2022-10-05T18:19:00.984Z,15
2022-10-05T18:26:00.961Z,14.9
2022-10-05T18:27:01.051Z,15
2022-10-05T18:29:01.026Z,15.1
2022-10-05T18:30:01.029Z,15
2022-10-05T18:32:01.012Z,15
2022-10-05T18:37:01.070Z,15.1
2022-10-05T18:42:00.905Z,15.2
2022-10-05T18:44:00.960Z,15.1
2022-10-05T18:45:01.022Z,15
2022-10-05T18:48:00.953Z,15
2022-10-05T18:49:00.975Z,15.1
2022-10-05T18:56:00.961Z,15.2
2022-10-05T18:57:00.969Z,15.4
2022-10-05T19:01:00.963Z,15.3
2022-10-05T19:02:00.999Z,15.2
2022-10-05T19:04:00.912Z,15.3
2022-10-05T19:06:00.922Z,15.2
2022-10-05T19:08:00.931Z,15.1
2022-10-05T19:09:00.911Z,15.3
2022-10-05T19:10:00.991Z,15.2
2022-10-05T19:12:01.048Z,15.4
2022-10-05T19:14:00.937Z,15.4
2022-10-05T19:15:00.933Z,15.3
2022-10-05T19:17:00.953Z,15.4
2022-10-05T19:22:00.903Z,15.2
2022-10-05T19:23:00.901Z,15.3
2022-10-05T19:25:00.946Z,15.2
2022-10-05T19:26:00.913Z,15.3
2022-10-05T19:31:00.992Z,15.2
2022-10-05T19:32:00.953Z,15.3
2022-10-05T19:33:00.996Z,15.4
2022-10-05T19:36:00.939Z,15.5
2022-10-05T19:37:00.914Z,15.4
2022-10-05T19:39:00.927Z,15.3
2022-10-05T19:42:00.920Z,15.5
2022-10-05T19:43:00.914Z,15.3
2022-10-05T19:44:00.925Z,15.4
2022-10-05T19:45:00.957Z,15.3
2022-10-05T19:48:00.939Z,15.4
2022-10-05T19:49:00.930Z,15.3
2022-10-05T19:52:00.985Z,15.4
2022-10-05T19:55:01.060Z,15.4
2022-10-05T19:57:00.959Z,15.3
2022-10-05T19:59:00.926Z,15.4
2022-10-05T20:02:00.965Z,15.5
2022-10-05T20:03:00.956Z,15.4
2022-10-05T20:04:00.952Z,15.3
2022-10-05T20:05:00.983Z,15.5
2022-10-05T20:10:00.942Z,15.6
2022-10-05T20:11:00.928Z,15.5
2022-10-05T20:13:00.928Z,15.5
2022-10-05T20:17:00.900Z,15.4
2022-10-05T20:19:00.966Z,15.5
2022-10-05T20:20:01.000Z,15.4
2022-10-05T20:22:00.916Z,15.5
2022-10-05T20:25:00.888Z,15.3
2022-10-05T20:26:00.927Z,15.5
2022-10-05T20:28:00.957Z,15.5
2022-10-05T20:33:00.916Z,15.4
2022-10-05T20:35:00.954Z,15.5
2022-10-05T20:36:00.956Z,15.4
2022-10-05T20:37:00.935Z,15.5
2022-10-05T20:39:00.913Z,15.4
2022-10-05T20:41:00.946Z,15.4
2022-10-05T20:43:00.914Z,15.2
2022-10-05T20:44:00.913Z,15.3
2022-10-05T20:48:00.894Z,15.3
2022-10-05T20:51:00.895Z,15.5
2022-10-05T20:52:00.923Z,15.3
2022-10-05T20:55:00.925Z,15.3
2022-10-05T20:58:00.942Z,15.4
2022-10-05T21:00:00.899Z,15.2
2022-10-05T21:03:00.923Z,15.4
2022-10-05T21:04:00.930Z,15.3
2022-10-05T21:07:00.902Z,15.4
2022-10-05T21:08:00.969Z,15.3
2022-10-05T21:13:00.907Z,15.2
2022-10-05T21:14:04.857Z,15.3
2022-10-05T21:16:00.931Z,15.4
2022-10-05T21:17:00.901Z,15.3
2022-10-05T21:18:00.931Z,15.4
2022-10-05T21:19:00.952Z,15.3
2022-10-05T21:20:00.990Z,15.2
2022-10-05T21:23:00.914Z,15.2
2022-10-05T21:24:00.907Z,15.3
2022-10-05T21:26:00.902Z,15.2
2022-10-05T21:27:00.933Z,15.3
2022-10-05T21:28:00.995Z,15.2
2022-10-05T21:29:00.935Z,15.3
2022-10-05T21:31:00.956Z,15.2
2022-10-05T21:33:00.928Z,15.3
2022-10-05T21:34:00.906Z,15.2
2022-10-05T21:36:00.951Z,15.2
2022-10-05T21:38:00.930Z,15.3
2022-10-05T21:39:00.967Z,15.2
2022-10-05T21:40:00.957Z,15.3
2022-10-05T21:43:00.988Z,15.3
2022-10-05T21:46:00.909Z,15.4
2022-10-05T21:48:00.918Z,15.3
2022-10-05T21:50:00.927Z,15.4
2022-10-05T21:51:00.896Z,15.3
2022-10-05T21:53:00.912Z,15.5
2022-10-05T21:54:00.938Z,15.4
2022-10-05T21:59:00.901Z,15.7
2022-10-05T22:02:00.914Z,15.5
2022-10-05T22:03:00.904Z,15.6
2022-10-05T22:05:00.956Z,15.7
2022-10-05T22:10:00.906Z,15.6
2022-10-05T22:11:00.960Z,15.7
2022-10-05T22:13:00.891Z,15.7
2022-10-05T22:15:00.895Z,15.8
2022-10-05T22:16:00.929Z,15.9
2022-10-05T22:17:00.996Z,15.8
2022-10-05T22:19:00.920Z,15.9
2022-10-05T22:20:00.895Z,15.7
2022-10-05T22:22:00.908Z,15.8
2022-10-05T22:23:00.900Z,15.7
2022-10-05T22:25:00.923Z,15.9
2022-10-05T22:27:00.913Z,15.8
2022-10-05T22:28:00.982Z,15.9
2022-10-05T22:34:01.032Z,16
2022-10-05T22:45:00.910Z,15.8
2022-10-05T22:46:00.948Z,15.9
2022-10-05T22:47:00.891Z,15.7
2022-10-05T22:48:00.958Z,15.9
2022-10-05T22:49:00.941Z,15.8
2022-10-05T22:50:00.940Z,16
2022-10-05T22:53:00.937Z,15.9
2022-10-05T22:54:00.967Z,15.8
2022-10-05T22:56:00.914Z,15.8
2022-10-05T22:59:00.914Z,16
2022-10-05T23:00:00.964Z,15.8
2022-10-05T23:02:01.040Z,15.9
2022-10-05T23:03:00.911Z,16
2022-10-05T23:04:00.919Z,15.8
2022-10-05T23:05:00.899Z,16
2022-10-05T23:10:00.914Z,15.8
2022-10-05T23:11:00.897Z,15.9
2022-10-05T23:12:00.900Z,15.8
2022-10-05T23:14:00.902Z,15.9
2022-10-05T23:15:00.939Z,15.8
2022-10-05T23:17:00.948Z,15.9
2022-10-05T23:19:00.941Z,15.8
2022-10-05T23:21:00.939Z,15.7
2022-10-05T23:23:00.958Z,15.8
2022-10-05T23:25:00.950Z,15.8
2022-10-05T23:27:00.920Z,15.7
2022-10-05T23:31:00.949Z,15.8
2022-10-05T23:33:00.948Z,15.7
2022-10-05T23:35:00.928Z,15.9
2022-10-05T23:37:00.948Z,15.8
2022-10-05T23:39:00.926Z,15.7
2022-10-05T23:43:00.946Z,15.7
2022-10-05T23:45:00.908Z,15.6
2022-10-05T23:47:00.891Z,15.7
2022-10-05T23:48:00.912Z,15.5
2022-10-05T23:49:00.914Z,15.6
2022-10-05T23:50:00.912Z,15.7
2022-10-05T23:51:00.906Z,15.8
2022-10-05T23:52:00.940Z,15.6
2022-10-05T23:56:00.953Z,15.6
2022-10-05T23:57:00.950Z,15.7
2022-10-05T23:59:00.930Z,15.5
